sensor_id;sensor_type;location;lat;lon;timestamp;P1;durP1;ratioP1;P2;durP2;ratioP2
54539;SDS011;40438;52.992;18.604;2023-12-29T00:00:01;16.60;;;5.32;;
54539;SDS011;40438;52.992;18.604;2023-12-29T00:02:31;11.25;;;4.47;;
54539;SDS011;40438;52.992;18.604;2023-12-29T00:04:56;14.85;;;5.53;;
54539;SDS011;40438;52.992;18.604;2023-12-29T00:07:22;10.48;;;5.10;;
54539;SDS011;40438;52.992;18.604;2023-12-29T00:09:48;11.93;;;5.15;;
54539;SDS011;40438;52.992;18.604;2023-12-29T00:12:14;11.93;;;5.20;;
54539;SDS011;40438;52.992;18.604;2023-12-29T00:14:40;12.30;;;4.88;;
54539;SDS011;40438;52.992;18.604;2023-12-29T00:17:08;13.50;;;5.75;;
54539;SDS011;40438;52.992;18.604;2023-12-29T00:19:33;12.32;;;5.65;;
54539;SDS011;40438;52.992;18.604;2023-12-29T00:21:59;11.95;;;5.03;;
54539;SDS011;40438;52.992;18.604;2023-12-29T00:24:25;10.25;;;5.72;;
54539;SDS011;40438;52.992;18.604;2023-12-29T00:26:51;11.48;;;5.63;;
54539;SDS011;40438;52.992;18.604;2023-12-29T00:29:16;14.02;;;5.72;;
54539;SDS011;40438;52.992;18.604;2023-12-29T00:31:42;12.85;;;5.63;;
54539;SDS011;40438;52.992;18.604;2023-12-29T00:34:10;12.88;;;6.30;;
54539;SDS011;40438;52.992;18.604;2023-12-29T00:36:37;12.60;;;5.57;;
54539;SDS011;40438;52.992;18.604;2023-12-29T00:39:03;13.65;;;5.95;;
54539;SDS011;40438;52.992;18.604;2023-12-29T00:41:28;18.08;;;6.53;;
54539;SDS011;40438;52.992;18.604;2023-12-29T00:43:54;16.65;;;5.97;;
54539;SDS011;40438;52.992;18.604;2023-12-29T00:46:20;14.60;;;6.68;;
54539;SDS011;40438;52.992;18.604;2023-12-29T00:48:46;18.70;;;6.43;;
54539;SDS011;40438;52.992;18.604;2023-12-29T00:51:13;16.02;;;6.05;;
54539;SDS011;40438;52.992;18.604;2023-12-29T00:53:39;10.27;;;5.45;;
54539;SDS011;40438;52.992;18.604;2023-12-29T00:56:09;12.77;;;5.53;;
54539;SDS011;40438;52.992;18.604;2023-12-29T00:58:35;15.65;;;6.22;;
54539;SDS011;40438;52.992;18.604;2023-12-29T01:01:01;12.40;;;6.40;;
54539;SDS011;40438;52.992;18.604;2023-12-29T01:03:27;14.52;;;6.55;;
54539;SDS011;40438;52.992;18.604;2023-12-29T01:05:53;11.80;;;5.03;;
54539;SDS011;40438;52.992;18.604;2023-12-29T01:08:20;14.43;;;5.57;;
54539;SDS011;40438;52.992;18.604;2023-12-29T01:10:46;12.05;;;5.47;;
54539;SDS011;40438;52.992;18.604;2023-12-29T01:13:11;11.35;;;4.95;;
54539;SDS011;40438;52.992;18.604;2023-12-29T01:15:37;11.90;;;5.72;;
54539;SDS011;40438;52.992;18.604;2023-12-29T01:18:03;13.27;;;5.47;;
54539;SDS011;40438;52.992;18.604;2023-12-29T01:20:29;10.88;;;4.80;;
54539;SDS011;40438;52.992;18.604;2023-12-29T01:22:55;12.88;;;6.38;;
54539;SDS011;40438;52.992;18.604;2023-12-29T01:25:22;10.43;;;5.38;;
54539;SDS011;40438;52.992;18.604;2023-12-29T01:27:48;14.13;;;5.65;;
54539;SDS011;40438;52.992;18.604;2023-12-29T01:30:14;17.55;;;6.53;;
54539;SDS011;40438;52.992;18.604;2023-12-29T01:32:40;13.43;;;6.07;;
54539;SDS011;40438;52.992;18.604;2023-12-29T01:35:06;9.88;;;5.63;;
54539;SDS011;40438;52.992;18.604;2023-12-29T01:37:32;12.52;;;6.10;;
54539;SDS011;40438;52.992;18.604;2023-12-29T01:39:58;13.88;;;6.15;;
54539;SDS011;40438;52.992;18.604;2023-12-29T01:42:25;13.40;;;5.38;;
54539;SDS011;40438;52.992;18.604;2023-12-29T01:44:51;10.10;;;5.18;;
54539;SDS011;40438;52.992;18.604;2023-12-29T01:47:18;12.45;;;5.30;;
54539;SDS011;40438;52.992;18.604;2023-12-29T01:49:44;9.35;;;5.22;;
54539;SDS011;40438;52.992;18.604;2023-12-29T01:52:10;13.15;;;5.93;;
54539;SDS011;40438;52.992;18.604;2023-12-29T01:54:37;13.45;;;6.07;;
54539;SDS011;40438;52.992;18.604;2023-12-29T01:57:04;13.82;;;5.60;;
54539;SDS011;40438;52.992;18.604;2023-12-29T01:59:31;12.50;;;5.38;;
54539;SDS011;40438;52.992;18.604;2023-12-29T02:01:57;12.40;;;6.10;;
54539;SDS011;40438;52.992;18.604;2023-12-29T02:04:23;12.50;;;5.85;;
54539;SDS011;40438;52.992;18.604;2023-12-29T02:06:50;13.20;;;5.63;;
54539;SDS011;40438;52.992;18.604;2023-12-29T02:09:17;10.55;;;5.57;;
54539;SDS011;40438;52.992;18.604;2023-12-29T02:11:43;11.48;;;5.75;;
54539;SDS011;40438;52.992;18.604;2023-12-29T02:14:09;11.45;;;5.72;;
54539;SDS011;40438;52.992;18.604;2023-12-29T02:16:38;13.52;;;6.28;;
54539;SDS011;40438;52.992;18.604;2023-12-29T02:19:13;11.43;;;5.20;;
54539;SDS011;40438;52.992;18.604;2023-12-29T02:21:54;15.10;;;5.53;;
54539;SDS011;40438;52.992;18.604;2023-12-29T02:24:20;16.27;;;5.68;;
54539;SDS011;40438;52.992;18.604;2023-12-29T02:26:49;12.52;;;6.05;;
54539;SDS011;40438;52.992;18.604;2023-12-29T02:29:19;14.48;;;5.63;;
54539;SDS011;40438;52.992;18.604;2023-12-29T02:31:49;9.30;;;5.05;;
54539;SDS011;40438;52.992;18.604;2023-12-29T02:34:18;11.48;;;5.55;;
54539;SDS011;40438;52.992;18.604;2023-12-29T02:36:46;14.10;;;6.20;;
54539;SDS011;40438;52.992;18.604;2023-12-29T02:39:13;13.27;;;5.43;;
54539;SDS011;40438;52.992;18.604;2023-12-29T02:41:39;11.88;;;5.25;;
54539;SDS011;40438;52.992;18.604;2023-12-29T02:44:07;11.32;;;5.38;;
54539;SDS011;40438;52.992;18.604;2023-12-29T02:46:33;11.30;;;5.50;;
54539;SDS011;40438;52.992;18.604;2023-12-29T02:48:59;11.95;;;5.90;;
54539;SDS011;40438;52.992;18.604;2023-12-29T02:51:25;10.90;;;5.40;;
54539;SDS011;40438;52.992;18.604;2023-12-29T02:53:50;10.43;;;5.53;;
54539;SDS011;40438;52.992;18.604;2023-12-29T02:56:17;12.05;;;5.95;;
54539;SDS011;40438;52.992;18.604;2023-12-29T02:58:43;13.60;;;5.50;;
54539;SDS011;40438;52.992;18.604;2023-12-29T03:01:10;11.63;;;5.55;;
54539;SDS011;40438;52.992;18.604;2023-12-29T03:03:36;10.85;;;5.57;;
54539;SDS011;40438;52.992;18.604;2023-12-29T03:06:01;10.73;;;5.47;;
54539;SDS011;40438;52.992;18.604;2023-12-29T03:08:27;11.55;;;5.70;;
54539;SDS011;40438;52.992;18.604;2023-12-29T03:10:53;11.68;;;6.88;;
54539;SDS011;40438;52.992;18.604;2023-12-29T03:13:19;16.08;;;5.40;;
54539;SDS011;40438;52.992;18.604;2023-12-29T03:15:45;14.80;;;5.45;;
54539;SDS011;40438;52.992;18.604;2023-12-29T03:18:12;12.15;;;5.10;;
54539;SDS011;40438;52.992;18.604;2023-12-29T03:20:38;9.70;;;5.25;;
54539;SDS011;40438;52.992;18.604;2023-12-29T03:23:04;13.15;;;6.13;;
54539;SDS011;40438;52.992;18.604;2023-12-29T03:25:29;17.27;;;5.85;;
54539;SDS011;40438;52.992;18.604;2023-12-29T03:27:55;11.80;;;5.63;;
54539;SDS011;40438;52.992;18.604;2023-12-29T03:30:21;13.40;;;4.93;;
54539;SDS011;40438;52.992;18.604;2023-12-29T03:32:47;11.63;;;5.15;;
54539;SDS011;40438;52.992;18.604;2023-12-29T03:35:14;13.90;;;5.60;;
54539;SDS011;40438;52.992;18.604;2023-12-29T03:37:40;11.85;;;5.95;;
54539;SDS011;40438;52.992;18.604;2023-12-29T03:40:07;13.10;;;5.63;;
54539;SDS011;40438;52.992;18.604;2023-12-29T03:42:33;13.40;;;5.55;;
54539;SDS011;40438;52.992;18.604;2023-12-29T03:45:00;13.45;;;6.10;;
54539;SDS011;40438;52.992;18.604;2023-12-29T03:47:26;13.43;;;5.82;;
54539;SDS011;40438;52.992;18.604;2023-12-29T03:49:51;7.78;;;4.90;;
54539;SDS011;40438;52.992;18.604;2023-12-29T03:52:19;8.80;;;5.07;;
54539;SDS011;40438;52.992;18.604;2023-12-29T03:54:44;10.23;;;5.30;;
54539;SDS011;40438;52.992;18.604;2023-12-29T03:57:11;11.90;;;4.93;;
54539;SDS011;40438;52.992;18.604;2023-12-29T03:59:37;10.75;;;5.38;;
54539;SDS011;40438;52.992;18.604;2023-12-29T04:02:03;9.65;;;4.70;;
54539;SDS011;40438;52.992;18.604;2023-12-29T04:04:29;13.35;;;5.75;;
54539;SDS011;40438;52.992;18.604;2023-12-29T04:06:54;10.77;;;5.00;;
54539;SDS011;40438;52.992;18.604;2023-12-29T04:09:21;11.35;;;5.30;;
54539;SDS011;40438;52.992;18.604;2023-12-29T04:11:47;11.80;;;4.63;;
54539;SDS011;40438;52.992;18.604;2023-12-29T04:14:13;11.75;;;5.55;;
54539;SDS011;40438;52.992;18.604;2023-12-29T04:16:39;8.88;;;4.25;;
54539;SDS011;40438;52.992;18.604;2023-12-29T04:19:05;11.48;;;4.82;;
54539;SDS011;40438;52.992;18.604;2023-12-29T04:21:30;10.32;;;4.50;;
54539;SDS011;40438;52.992;18.604;2023-12-29T04:23:56;10.52;;;5.07;;
54539;SDS011;40438;52.992;18.604;2023-12-29T04:26:24;10.23;;;4.60;;
54539;SDS011;40438;52.992;18.604;2023-12-29T04:28:49;9.18;;;4.13;;
54539;SDS011;40438;52.992;18.604;2023-12-29T04:31:17;10.27;;;4.95;;
54539;SDS011;40438;52.992;18.604;2023-12-29T04:33:43;9.75;;;4.22;;
54539;SDS011;40438;52.992;18.604;2023-12-29T04:36:08;9.88;;;4.55;;
54539;SDS011;40438;52.992;18.604;2023-12-29T04:38:34;9.93;;;4.70;;
54539;SDS011;40438;52.992;18.604;2023-12-29T04:41:00;12.20;;;4.65;;
54539;SDS011;40438;52.992;18.604;2023-12-29T04:43:27;12.40;;;4.85;;
54539;SDS011;40438;52.992;18.604;2023-12-29T04:45:53;7.68;;;4.50;;
54539;SDS011;40438;52.992;18.604;2023-12-29T04:48:19;10.95;;;4.57;;
54539;SDS011;40438;52.992;18.604;2023-12-29T04:50:44;10.93;;;4.32;;
54539;SDS011;40438;52.992;18.604;2023-12-29T04:53:10;13.23;;;5.20;;
54539;SDS011;40438;52.992;18.604;2023-12-29T04:55:36;9.73;;;4.15;;
54539;SDS011;40438;52.992;18.604;2023-12-29T04:58:02;11.45;;;4.88;;
54539;SDS011;40438;52.992;18.604;2023-12-29T05:00:29;10.13;;;4.47;;
54539;SDS011;40438;52.992;18.604;2023-12-29T05:02:55;10.38;;;4.57;;
54539;SDS011;40438;52.992;18.604;2023-12-29T05:05:20;8.00;;;3.88;;
54539;SDS011;40438;52.992;18.604;2023-12-29T05:07:46;11.90;;;4.72;;
54539;SDS011;40438;52.992;18.604;2023-12-29T05:10:12;10.00;;;4.07;;
54539;SDS011;40438;52.992;18.604;2023-12-29T05:12:38;9.75;;;4.50;;
54539;SDS011;40438;52.992;18.604;2023-12-29T05:15:04;9.23;;;4.10;;
54539;SDS011;40438;52.992;18.604;2023-12-29T05:17:32;7.65;;;4.03;;
54539;SDS011;40438;52.992;18.604;2023-12-29T05:19:58;8.90;;;3.55;;
54539;SDS011;40438;52.992;18.604;2023-12-29T05:22:23;9.35;;;4.28;;
54539;SDS011;40438;52.992;18.604;2023-12-29T05:24:49;9.85;;;4.15;;
54539;SDS011;40438;52.992;18.604;2023-12-29T05:27:15;7.93;;;4.32;;
54539;SDS011;40438;52.992;18.604;2023-12-29T05:29:41;8.98;;;4.90;;
54539;SDS011;40438;52.992;18.604;2023-12-29T05:32:07;11.07;;;3.88;;
54539;SDS011;40438;52.992;18.604;2023-12-29T05:34:35;5.78;;;3.60;;
54539;SDS011;40438;52.992;18.604;2023-12-29T05:37:01;11.02;;;4.20;;
54539;SDS011;40438;52.992;18.604;2023-12-29T05:39:26;6.97;;;3.78;;
54539;SDS011;40438;52.992;18.604;2023-12-29T05:41:52;10.88;;;4.85;;
54539;SDS011;40438;52.992;18.604;2023-12-29T05:44:18;11.05;;;4.53;;
54539;SDS011;40438;52.992;18.604;2023-12-29T05:46:45;7.03;;;3.90;;
54539;SDS011;40438;52.992;18.604;2023-12-29T05:49:11;8.85;;;4.18;;
54539;SDS011;40438;52.992;18.604;2023-12-29T05:51:39;8.82;;;4.03;;
54539;SDS011;40438;52.992;18.604;2023-12-29T05:54:04;7.50;;;4.20;;
54539;SDS011;40438;52.992;18.604;2023-12-29T05:56:30;9.70;;;4.57;;
54539;SDS011;40438;52.992;18.604;2023-12-29T05:58:56;9.57;;;3.78;;
54539;SDS011;40438;52.992;18.604;2023-12-29T06:01:22;9.40;;;4.35;;
54539;SDS011;40438;52.992;18.604;2023-12-29T06:03:47;6.95;;;3.53;;
54539;SDS011;40438;52.992;18.604;2023-12-29T06:06:13;9.43;;;4.57;;
54539;SDS011;40438;52.992;18.604;2023-12-29T06:08:40;6.82;;;4.13;;
54539;SDS011;40438;52.992;18.604;2023-12-29T06:11:06;8.93;;;4.38;;
54539;SDS011;40438;52.992;18.604;2023-12-29T06:13:32;10.13;;;3.90;;
54539;SDS011;40438;52.992;18.604;2023-12-29T06:15:58;7.10;;;3.83;;
54539;SDS011;40438;52.992;18.604;2023-12-29T06:18:24;8.02;;;4.13;;
54539;SDS011;40438;52.992;18.604;2023-12-29T06:20:49;8.55;;;3.60;;
54539;SDS011;40438;52.992;18.604;2023-12-29T06:23:15;7.85;;;4.32;;
54539;SDS011;40438;52.992;18.604;2023-12-29T06:25:42;8.52;;;5.00;;
54539;SDS011;40438;52.992;18.604;2023-12-29T06:28:08;11.77;;;6.32;;
54539;SDS011;40438;52.992;18.604;2023-12-29T06:30:34;12.95;;;5.30;;
54539;SDS011;40438;52.992;18.604;2023-12-29T06:33:00;9.20;;;4.68;;
54539;SDS011;40438;52.992;18.604;2023-12-29T06:35:25;11.05;;;4.70;;
54539;SDS011;40438;52.992;18.604;2023-12-29T06:37:51;8.57;;;3.75;;
54539;SDS011;40438;52.992;18.604;2023-12-29T06:40:17;7.72;;;3.88;;
54539;SDS011;40438;52.992;18.604;2023-12-29T06:42:44;8.77;;;3.72;;
54539;SDS011;40438;52.992;18.604;2023-12-29T06:45:10;7.63;;;3.47;;
54539;SDS011;40438;52.992;18.604;2023-12-29T06:47:36;8.93;;;3.65;;
54539;SDS011;40438;52.992;18.604;2023-12-29T06:50:02;8.63;;;3.78;;
54539;SDS011;40438;52.992;18.604;2023-12-29T06:52:28;9.32;;;3.30;;
54539;SDS011;40438;52.992;18.604;2023-12-29T06:54:54;6.93;;;3.60;;
54539;SDS011;40438;52.992;18.604;2023-12-29T06:57:20;6.72;;;3.38;;
54539;SDS011;40438;52.992;18.604;2023-12-29T06:59:47;4.85;;;2.85;;
54539;SDS011;40438;52.992;18.604;2023-12-29T07:02:13;6.03;;;3.47;;
54539;SDS011;40438;52.992;18.604;2023-12-29T07:04:40;7.00;;;3.70;;
54539;SDS011;40438;52.992;18.604;2023-12-29T07:07:06;7.38;;;3.40;;
54539;SDS011;40438;52.992;18.604;2023-12-29T07:09:32;7.53;;;3.78;;
54539;SDS011;40438;52.992;18.604;2023-12-29T07:11:58;7.95;;;3.42;;
54539;SDS011;40438;52.992;18.604;2023-12-29T07:14:24;4.78;;;2.90;;
54539;SDS011;40438;52.992;18.604;2023-12-29T07:16:51;5.82;;;2.60;;
54539;SDS011;40438;52.992;18.604;2023-12-29T07:19:17;6.80;;;3.17;;
54539;SDS011;40438;52.992;18.604;2023-12-29T07:21:42;6.10;;;2.80;;
54539;SDS011;40438;52.992;18.604;2023-12-29T07:24:08;4.20;;;3.00;;
54539;SDS011;40438;52.992;18.604;2023-12-29T07:26:34;4.57;;;2.83;;
54539;SDS011;40438;52.992;18.604;2023-12-29T07:29:00;7.20;;;3.22;;
54539;SDS011;40438;52.992;18.604;2023-12-29T07:31:25;5.30;;;2.72;;
54539;SDS011;40438;52.992;18.604;2023-12-29T07:33:53;5.50;;;2.90;;
54539;SDS011;40438;52.992;18.604;2023-12-29T07:36:18;4.90;;;2.65;;
54539;SDS011;40438;52.992;18.604;2023-12-29T07:38:44;8.68;;;2.95;;
54539;SDS011;40438;52.992;18.604;2023-12-29T07:41:10;5.32;;;3.00;;
54539;SDS011;40438;52.992;18.604;2023-12-29T07:43:36;9.20;;;3.13;;
54539;SDS011;40438;52.992;18.604;2023-12-29T07:46:01;5.00;;;2.67;;
54539;SDS011;40438;52.992;18.604;2023-12-29T07:48:27;5.50;;;2.55;;
54539;SDS011;40438;52.992;18.604;2023-12-29T07:50:54;4.68;;;2.50;;
54539;SDS011;40438;52.992;18.604;2023-12-29T07:53:28;6.28;;;2.90;;
54539;SDS011;40438;52.992;18.604;2023-12-29T07:55:54;5.93;;;2.65;;
54539;SDS011;40438;52.992;18.604;2023-12-29T07:58:20;8.55;;;3.40;;
54539;SDS011;40438;52.992;18.604;2023-12-29T08:00:45;8.55;;;3.22;;
54539;SDS011;40438;52.992;18.604;2023-12-29T08:03:11;6.43;;;2.70;;
54539;SDS011;40438;52.992;18.604;2023-12-29T08:05:37;7.82;;;3.58;;
54539;SDS011;40438;52.992;18.604;2023-12-29T08:08:04;3.95;;;2.75;;
54539;SDS011;40438;52.992;18.604;2023-12-29T08:10:31;8.13;;;3.03;;
54539;SDS011;40438;52.992;18.604;2023-12-29T08:12:56;6.68;;;2.72;;
54539;SDS011;40438;52.992;18.604;2023-12-29T08:15:22;6.10;;;2.67;;
54539;SDS011;40438;52.992;18.604;2023-12-29T08:17:48;5.32;;;2.80;;
54539;SDS011;40438;52.992;18.604;2023-12-29T08:20:14;5.15;;;2.65;;
54539;SDS011;40438;52.992;18.604;2023-12-29T08:22:40;6.13;;;2.65;;
54539;SDS011;40438;52.992;18.604;2023-12-29T08:25:07;5.93;;;2.70;;
54539;SDS011;40438;52.992;18.604;2023-12-29T08:27:33;4.65;;;2.47;;
54539;SDS011;40438;52.992;18.604;2023-12-29T08:29:59;9.38;;;3.25;;
54539;SDS011;40438;52.992;18.604;2023-12-29T08:32:24;5.47;;;2.50;;
54539;SDS011;40438;52.992;18.604;2023-12-29T08:34:50;12.88;;;3.13;;
54539;SDS011;40438;52.992;18.604;2023-12-29T08:37:16;4.72;;;2.80;;
54539;SDS011;40438;52.992;18.604;2023-12-29T08:39:42;8.20;;;3.30;;
54539;SDS011;40438;52.992;18.604;2023-12-29T08:42:09;4.88;;;2.90;;
54539;SDS011;40438;52.992;18.604;2023-12-29T08:44:35;4.93;;;2.60;;
54539;SDS011;40438;52.992;18.604;2023-12-29T08:47:00;6.35;;;3.50;;
54539;SDS011;40438;52.992;18.604;2023-12-29T08:49:26;5.35;;;2.95;;
54539;SDS011;40438;52.992;18.604;2023-12-29T08:51:52;7.47;;;2.78;;
54539;SDS011;40438;52.992;18.604;2023-12-29T08:54:18;7.40;;;3.28;;
54539;SDS011;40438;52.992;18.604;2023-12-29T08:56:43;12.88;;;5.28;;
54539;SDS011;40438;52.992;18.604;2023-12-29T08:59:11;24.42;;;8.57;;
54539;SDS011;40438;52.992;18.604;2023-12-29T09:01:36;9.77;;;4.03;;
54539;SDS011;40438;52.992;18.604;2023-12-29T09:04:02;6.07;;;2.85;;
54539;SDS011;40438;52.992;18.604;2023-12-29T09:06:28;5.30;;;2.50;;
54539;SDS011;40438;52.992;18.604;2023-12-29T09:08:54;5.68;;;3.17;;
54539;SDS011;40438;52.992;18.604;2023-12-29T09:11:20;6.47;;;2.75;;
54539;SDS011;40438;52.992;18.604;2023-12-29T09:13:45;7.00;;;2.97;;
54539;SDS011;40438;52.992;18.604;2023-12-29T09:16:13;6.82;;;3.13;;
54539;SDS011;40438;52.992;18.604;2023-12-29T09:18:38;5.22;;;2.55;;
54539;SDS011;40438;52.992;18.604;2023-12-29T09:21:04;10.77;;;3.50;;
54539;SDS011;40438;52.992;18.604;2023-12-29T09:23:30;4.72;;;2.60;;
54539;SDS011;40438;52.992;18.604;2023-12-29T09:25:56;6.78;;;2.85;;
54539;SDS011;40438;52.992;18.604;2023-12-29T09:28:21;7.18;;;3.13;;
54539;SDS011;40438;52.992;18.604;2023-12-29T09:30:47;4.60;;;2.40;;
54539;SDS011;40438;52.992;18.604;2023-12-29T09:33:14;4.82;;;2.75;;
54539;SDS011;40438;52.992;18.604;2023-12-29T09:35:40;4.93;;;2.67;;
54539;SDS011;40438;52.992;18.604;2023-12-29T09:38:06;3.50;;;2.20;;
54539;SDS011;40438;52.992;18.604;2023-12-29T09:40:32;6.90;;;2.75;;
54539;SDS011;40438;52.992;18.604;2023-12-29T09:42:58;4.68;;;2.20;;
54539;SDS011;40438;52.992;18.604;2023-12-29T09:45:26;4.65;;;2.50;;
54539;SDS011;40438;52.992;18.604;2023-12-29T09:47:53;5.38;;;2.65;;
54539;SDS011;40438;52.992;18.604;2023-12-29T09:50:23;10.52;;;3.13;;
54539;SDS011;40438;52.992;18.604;2023-12-29T09:52:50;12.77;;;4.82;;
54539;SDS011;40438;52.992;18.604;2023-12-29T09:55:18;6.32;;;3.10;;
54539;SDS011;40438;52.992;18.604;2023-12-29T09:57:44;5.10;;;2.20;;
54539;SDS011;40438;52.992;18.604;2023-12-29T10:00:12;13.32;;;4.30;;
54539;SDS011;40438;52.992;18.604;2023-12-29T10:02:41;11.07;;;3.58;;
54539;SDS011;40438;52.992;18.604;2023-12-29T10:05:07;5.43;;;2.40;;
54539;SDS011;40438;52.992;18.604;2023-12-29T10:07:36;8.00;;;3.40;;
54539;SDS011;40438;52.992;18.604;2023-12-29T10:10:03;3.38;;;1.90;;
54539;SDS011;40438;52.992;18.604;2023-12-29T10:12:30;5.82;;;2.20;;
54539;SDS011;40438;52.992;18.604;2023-12-29T10:15:01;4.22;;;2.38;;
54539;SDS011;40438;52.992;18.604;2023-12-29T10:17:32;5.72;;;2.08;;
54539;SDS011;40438;52.992;18.604;2023-12-29T10:20:07;8.93;;;2.97;;
54539;SDS011;40438;52.992;18.604;2023-12-29T10:22:44;4.57;;;2.63;;
54539;SDS011;40438;52.992;18.604;2023-12-29T10:25:16;7.15;;;3.05;;
54539;SDS011;40438;52.992;18.604;2023-12-29T10:27:42;3.85;;;1.95;;
54539;SDS011;40438;52.992;18.604;2023-12-29T10:30:09;4.95;;;2.05;;
54539;SDS011;40438;52.992;18.604;2023-12-29T10:32:36;5.18;;;2.10;;
54539;SDS011;40438;52.992;18.604;2023-12-29T10:35:08;3.85;;;1.75;;
54539;SDS011;40438;52.992;18.604;2023-12-29T10:37:34;3.97;;;1.70;;
54539;SDS011;40438;52.992;18.604;2023-12-29T10:40:01;4.13;;;2.20;;
54539;SDS011;40438;52.992;18.604;2023-12-29T10:42:27;6.28;;;2.40;;
54539;SDS011;40438;52.992;18.604;2023-12-29T10:45:04;4.50;;;2.13;;
54539;SDS011;40438;52.992;18.604;2023-12-29T10:47:31;1.88;;;1.42;;
54539;SDS011;40438;52.992;18.604;2023-12-29T10:49:58;5.50;;;1.67;;
54539;SDS011;40438;52.992;18.604;2023-12-29T10:52:24;2.95;;;1.58;;
54539;SDS011;40438;52.992;18.604;2023-12-29T10:54:50;4.25;;;1.77;;
54539;SDS011;40438;52.992;18.604;2023-12-29T10:57:31;2.78;;;1.70;;
54539;SDS011;40438;52.992;18.604;2023-12-29T10:59:57;2.78;;;1.42;;
54539;SDS011;40438;52.992;18.604;2023-12-29T11:02:22;2.55;;;1.48;;
54539;SDS011;40438;52.992;18.604;2023-12-29T11:04:48;4.60;;;2.00;;
54539;SDS011;40438;52.992;18.604;2023-12-29T11:07:14;2.75;;;1.90;;
54539;SDS011;40438;52.992;18.604;2023-12-29T11:09:40;3.75;;;1.90;;
54539;SDS011;40438;52.992;18.604;2023-12-29T11:12:08;3.60;;;1.90;;
54539;SDS011;40438;52.992;18.604;2023-12-29T11:14:35;4.90;;;2.53;;
54539;SDS011;40438;52.992;18.604;2023-12-29T11:17:02;5.60;;;1.90;;
54539;SDS011;40438;52.992;18.604;2023-12-29T11:19:28;4.75;;;2.28;;
54539;SDS011;40438;52.992;18.604;2023-12-29T11:21:55;4.68;;;1.85;;
54539;SDS011;40438;52.992;18.604;2023-12-29T11:24:21;3.78;;;1.63;;
54539;SDS011;40438;52.992;18.604;2023-12-29T11:26:47;5.55;;;1.98;;
54539;SDS011;40438;52.992;18.604;2023-12-29T11:29:16;7.28;;;2.40;;
54539;SDS011;40438;52.992;18.604;2023-12-29T11:31:42;9.32;;;4.20;;
54539;SDS011;40438;52.992;18.604;2023-12-29T11:34:10;10.35;;;3.70;;
54539;SDS011;40438;52.992;18.604;2023-12-29T11:36:43;5.03;;;2.20;;
54539;SDS011;40438;52.992;18.604;2023-12-29T11:39:14;6.72;;;1.80;;
54539;SDS011;40438;52.992;18.604;2023-12-29T11:41:47;3.60;;;1.65;;
54539;SDS011;40438;52.992;18.604;2023-12-29T11:44:25;5.60;;;2.00;;
54539;SDS011;40438;52.992;18.604;2023-12-29T11:46:51;3.05;;;1.85;;
54539;SDS011;40438;52.992;18.604;2023-12-29T11:49:17;3.92;;;1.70;;
54539;SDS011;40438;52.992;18.604;2023-12-29T11:51:44;4.22;;;2.08;;
54539;SDS011;40438;52.992;18.604;2023-12-29T11:54:20;5.85;;;2.42;;
54539;SDS011;40438;52.992;18.604;2023-12-29T11:56:47;3.72;;;2.10;;
54539;SDS011;40438;52.992;18.604;2023-12-29T11:59:13;2.15;;;1.23;;
54539;SDS011;40438;52.992;18.604;2023-12-29T12:01:41;3.13;;;1.85;;
54539;SDS011;40438;52.992;18.604;2023-12-29T12:07:00;4.72;;;1.60;;
54539;SDS011;40438;52.992;18.604;2023-12-29T12:09:26;3.30;;;2.00;;
54539;SDS011;40438;52.992;18.604;2023-12-29T12:11:52;3.70;;;2.10;;
54539;SDS011;40438;52.992;18.604;2023-12-29T12:17:14;2.10;;;1.35;;
54539;SDS011;40438;52.992;18.604;2023-12-29T12:19:52;1.98;;;1.52;;
54539;SDS011;40438;52.992;18.604;2023-12-29T12:22:21;4.35;;;1.67;;
54539;SDS011;40438;52.992;18.604;2023-12-29T12:24:49;7.22;;;2.50;;
54539;SDS011;40438;52.992;18.604;2023-12-29T12:27:16;5.00;;;2.17;;
54539;SDS011;40438;52.992;18.604;2023-12-29T12:29:41;5.45;;;2.20;;
54539;SDS011;40438;52.992;18.604;2023-12-29T12:32:07;4.85;;;2.17;;
54539;SDS011;40438;52.992;18.604;2023-12-29T12:34:37;6.28;;;1.95;;
54539;SDS011;40438;52.992;18.604;2023-12-29T12:37:03;12.45;;;5.80;;
54539;SDS011;40438;52.992;18.604;2023-12-29T12:39:37;5.50;;;2.75;;
54539;SDS011;40438;52.992;18.604;2023-12-29T12:42:04;4.75;;;2.28;;
54539;SDS011;40438;52.992;18.604;2023-12-29T12:44:29;13.07;;;6.72;;
54539;SDS011;40438;52.992;18.604;2023-12-29T12:46:56;12.88;;;6.80;;
54539;SDS011;40438;52.992;18.604;2023-12-29T12:49:23;5.03;;;2.67;;
54539;SDS011;40438;52.992;18.604;2023-12-29T12:51:51;4.25;;;2.03;;
54539;SDS011;40438;52.992;18.604;2023-12-29T12:54:19;3.78;;;1.90;;
54539;SDS011;40438;52.992;18.604;2023-12-29T12:56:45;4.32;;;1.85;;
54539;SDS011;40438;52.992;18.604;2023-12-29T12:59:12;3.97;;;1.67;;
54539;SDS011;40438;52.992;18.604;2023-12-29T13:01:38;3.45;;;1.83;;
54539;SDS011;40438;52.992;18.604;2023-12-29T13:04:04;4.03;;;1.92;;
54539;SDS011;40438;52.992;18.604;2023-12-29T13:06:31;5.05;;;2.55;;
54539;SDS011;40438;52.992;18.604;2023-12-29T13:08:59;2.15;;;1.58;;
54539;SDS011;40438;52.992;18.604;2023-12-29T13:11:26;2.75;;;1.40;;
54539;SDS011;40438;52.992;18.604;2023-12-29T13:13:51;3.63;;;2.00;;
54539;SDS011;40438;52.992;18.604;2023-12-29T13:16:17;3.47;;;1.80;;
54539;SDS011;40438;52.992;18.604;2023-12-29T13:18:43;3.63;;;1.52;;
54539;SDS011;40438;52.992;18.604;2023-12-29T13:21:09;7.10;;;2.40;;
54539;SDS011;40438;52.992;18.604;2023-12-29T13:23:35;4.15;;;1.83;;
54539;SDS011;40438;52.992;18.604;2023-12-29T13:26:05;4.57;;;1.70;;
54539;SDS011;40438;52.992;18.604;2023-12-29T13:28:32;4.22;;;2.03;;
54539;SDS011;40438;52.992;18.604;2023-12-29T13:30:59;3.58;;;1.50;;
54539;SDS011;40438;52.992;18.604;2023-12-29T13:33:26;4.43;;;2.00;;
54539;SDS011;40438;52.992;18.604;2023-12-29T13:36:01;2.85;;;2.00;;
54539;SDS011;40438;52.992;18.604;2023-12-29T13:38:33;4.40;;;1.58;;
54539;SDS011;40438;52.992;18.604;2023-12-29T13:41:07;2.70;;;1.48;;
54539;SDS011;40438;52.992;18.604;2023-12-29T13:43:34;4.13;;;1.70;;
54539;SDS011;40438;52.992;18.604;2023-12-29T13:46:03;6.70;;;1.85;;
54539;SDS011;40438;52.992;18.604;2023-12-29T13:48:30;4.65;;;1.77;;
54539;SDS011;40438;52.992;18.604;2023-12-29T13:50:57;3.97;;;1.83;;
54539;SDS011;40438;52.992;18.604;2023-12-29T13:53:23;4.80;;;1.40;;
54539;SDS011;40438;52.992;18.604;2023-12-29T13:55:49;3.50;;;1.50;;
54539;SDS011;40438;52.992;18.604;2023-12-29T13:58:16;5.05;;;2.05;;
54539;SDS011;40438;52.992;18.604;2023-12-29T14:00:42;6.75;;;2.05;;
54539;SDS011;40438;52.992;18.604;2023-12-29T14:03:14;3.63;;;1.65;;
54539;SDS011;40438;52.992;18.604;2023-12-29T14:05:47;5.28;;;2.13;;
54539;SDS011;40438;52.992;18.604;2023-12-29T14:08:17;4.13;;;1.95;;
54539;SDS011;40438;52.992;18.604;2023-12-29T14:10:44;6.30;;;2.30;;
54539;SDS011;40438;52.992;18.604;2023-12-29T14:13:10;3.60;;;1.98;;
54539;SDS011;40438;52.992;18.604;2023-12-29T14:15:39;4.72;;;2.05;;
54539;SDS011;40438;52.992;18.604;2023-12-29T14:18:06;5.05;;;2.20;;
54539;SDS011;40438;52.992;18.604;2023-12-29T14:20:46;6.35;;;2.00;;
54539;SDS011;40438;52.992;18.604;2023-12-29T14:23:12;4.50;;;2.00;;
54539;SDS011;40438;52.992;18.604;2023-12-29T14:25:38;4.32;;;1.90;;
54539;SDS011;40438;52.992;18.604;2023-12-29T14:28:14;3.78;;;1.77;;
54539;SDS011;40438;52.992;18.604;2023-12-29T14:30:42;6.88;;;2.50;;